sensor_id;sensor_type;location;lat;lon;timestamp;P1;durP1;ratioP1;P2;durP2;ratioP2
30934;SDS011;51033;42.648;23.292;2022-12-18T00:01:17;5.35;;;4.55;;
30934;SDS011;51033;42.648;23.292;2022-12-18T00:03:43;5.80;;;4.63;;
30934;SDS011;51033;42.648;23.292;2022-12-18T00:06:08;6.78;;;5.15;;
30934;SDS011;51033;42.648;23.292;2022-12-18T00:08:34;6.22;;;4.75;;
30934;SDS011;51033;42.648;23.292;2022-12-18T00:11:03;7.00;;;5.50;;
30934;SDS011;51033;42.648;23.292;2022-12-18T00:13:30;6.00;;;5.35;;
30934;SDS011;51033;42.648;23.292;2022-12-18T00:15:55;8.35;;;6.43;;
30934;SDS011;51033;42.648;23.292;2022-12-18T00:18:27;8.35;;;6.40;;
30934;SDS011;51033;42.648;23.292;2022-12-18T00:20:52;6.65;;;5.60;;
30934;SDS011;51033;42.648;23.292;2022-12-18T00:23:18;6.85;;;5.95;;
30934;SDS011;51033;42.648;23.292;2022-12-18T00:25:43;7.60;;;5.40;;
30934;SDS011;51033;42.648;23.292;2022-12-18T00:28:08;6.78;;;5.45;;
30934;SDS011;51033;42.648;23.292;2022-12-18T00:30:34;7.38;;;5.55;;
30934;SDS011;51033;42.648;23.292;2022-12-18T00:32:59;8.48;;;5.38;;
30934;SDS011;51033;42.648;23.292;2022-12-18T00:35:25;9.15;;;5.55;;
30934;SDS011;51033;42.648;23.292;2022-12-18T00:37:50;6.78;;;6.10;;
30934;SDS011;51033;42.648;23.292;2022-12-18T00:40:15;9.23;;;5.70;;
30934;SDS011;51033;42.648;23.292;2022-12-18T00:42:41;6.45;;;5.63;;
30934;SDS011;51033;42.648;23.292;2022-12-18T00:45:28;8.65;;;6.10;;
30934;SDS011;51033;42.648;23.292;2022-12-18T00:47:56;7.78;;;5.68;;
30934;SDS011;51033;42.648;23.292;2022-12-18T00:50:23;6.40;;;5.40;;
30934;SDS011;51033;42.648;23.292;2022-12-18T00:52:49;7.78;;;6.18;;
30934;SDS011;51033;42.648;23.292;2022-12-18T00:55:14;8.15;;;5.45;;
30934;SDS011;51033;42.648;23.292;2022-12-18T00:57:40;6.70;;;5.82;;
30934;SDS011;51033;42.648;23.292;2022-12-18T01:00:07;7.25;;;5.72;;
30934;SDS011;51033;42.648;23.292;2022-12-18T01:02:34;7.22;;;6.10;;
30934;SDS011;51033;42.648;23.292;2022-12-18T01:04:59;7.05;;;5.55;;
30934;SDS011;51033;42.648;23.292;2022-12-18T01:07:26;7.80;;;6.60;;
30934;SDS011;51033;42.648;23.292;2022-12-18T01:09:51;8.57;;;6.18;;
30934;SDS011;51033;42.648;23.292;2022-12-18T01:12:16;9.48;;;6.28;;
30934;SDS011;51033;42.648;23.292;2022-12-18T01:14:42;8.65;;;6.63;;
30934;SDS011;51033;42.648;23.292;2022-12-18T01:17:07;8.15;;;6.43;;
30934;SDS011;51033;42.648;23.292;2022-12-18T01:19:33;8.57;;;6.00;;
30934;SDS011;51033;42.648;23.292;2022-12-18T01:21:58;7.15;;;5.82;;
30934;SDS011;51033;42.648;23.292;2022-12-18T01:24:24;9.63;;;6.65;;
30934;SDS011;51033;42.648;23.292;2022-12-18T01:26:49;8.27;;;6.30;;
30934;SDS011;51033;42.648;23.292;2022-12-18T01:29:15;7.40;;;6.45;;
30934;SDS011;51033;42.648;23.292;2022-12-18T01:31:40;8.75;;;6.80;;
30934;SDS011;51033;42.648;23.292;2022-12-18T01:34:06;8.98;;;7.15;;
30934;SDS011;51033;42.648;23.292;2022-12-18T01:36:32;9.73;;;7.25;;
30934;SDS011;51033;42.648;23.292;2022-12-18T01:38:59;8.63;;;7.00;;
30934;SDS011;51033;42.648;23.292;2022-12-18T01:41:28;11.07;;;7.38;;
30934;SDS011;51033;42.648;23.292;2022-12-18T01:47:28;10.50;;;8.48;;
30934;SDS011;51033;42.648;23.292;2022-12-18T01:49:55;10.48;;;7.80;;
30934;SDS011;51033;42.648;23.292;2022-12-18T01:52:24;10.50;;;7.63;;
30934;SDS011;51033;42.648;23.292;2022-12-18T01:54:53;11.55;;;8.77;;
30934;SDS011;51033;42.648;23.292;2022-12-18T01:57:20;10.32;;;8.40;;
30934;SDS011;51033;42.648;23.292;2022-12-18T01:59:47;10.70;;;8.10;;
30934;SDS011;51033;42.648;23.292;2022-12-18T02:02:17;12.05;;;9.23;;
30934;SDS011;51033;42.648;23.292;2022-12-18T02:04:43;10.70;;;8.32;;
30934;SDS011;51033;42.648;23.292;2022-12-18T02:07:26;12.32;;;9.23;;
30934;SDS011;51033;42.648;23.292;2022-12-18T02:10:06;11.50;;;8.27;;
30934;SDS011;51033;42.648;23.292;2022-12-18T02:12:42;11.07;;;9.30;;
30934;SDS011;51033;42.648;23.292;2022-12-18T02:18:11;10.65;;;8.55;;
30934;SDS011;51033;42.648;23.292;2022-12-18T02:20:48;12.15;;;9.18;;
30934;SDS011;51033;42.648;23.292;2022-12-18T02:26:29;13.02;;;8.32;;
30934;SDS011;51033;42.648;23.292;2022-12-18T02:29:01;11.63;;;9.23;;
30934;SDS011;51033;42.648;23.292;2022-12-18T02:31:31;11.13;;;8.68;;
30934;SDS011;51033;42.648;23.292;2022-12-18T02:34:02;11.32;;;9.13;;
30934;SDS011;51033;42.648;23.292;2022-12-18T02:36:30;10.43;;;8.18;;
30934;SDS011;51033;42.648;23.292;2022-12-18T02:38:58;10.35;;;7.18;;
30934;SDS011;51033;42.648;23.292;2022-12-18T02:41:26;9.38;;;7.47;;
30934;SDS011;51033;42.648;23.292;2022-12-18T02:43:55;10.63;;;7.90;;
30934;SDS011;51033;42.648;23.292;2022-12-18T02:49:49;6.35;;;5.68;;
30934;SDS011;51033;42.648;23.292;2022-12-18T03:03:40;9.43;;;6.80;;
30934;SDS011;51033;42.648;23.292;2022-12-18T03:06:18;9.43;;;6.90;;
30934;SDS011;51033;42.648;23.292;2022-12-18T03:08:49;6.28;;;5.65;;
30934;SDS011;51033;42.648;23.292;2022-12-18T03:11:19;7.60;;;6.45;;
30934;SDS011;51033;42.648;23.292;2022-12-18T03:16:31;7.20;;;5.47;;
30934;SDS011;51033;42.648;23.292;2022-12-18T03:19:00;6.95;;;5.53;;
30934;SDS011;51033;42.648;23.292;2022-12-18T03:21:35;7.35;;;6.07;;
30934;SDS011;51033;42.648;23.292;2022-12-18T03:24:08;6.97;;;5.13;;
30934;SDS011;51033;42.648;23.292;2022-12-18T03:26:35;6.13;;;5.13;;
30934;SDS011;51033;42.648;23.292;2022-12-18T03:29:09;5.85;;;4.75;;
30934;SDS011;51033;42.648;23.292;2022-12-18T03:31:42;6.00;;;4.80;;
30934;SDS011;51033;42.648;23.292;2022-12-18T03:34:14;5.55;;;4.40;;
30934;SDS011;51033;42.648;23.292;2022-12-18T03:36:44;7.38;;;4.43;;
30934;SDS011;51033;42.648;23.292;2022-12-18T03:39:10;5.03;;;4.32;;
30934;SDS011;51033;42.648;23.292;2022-12-18T03:41:47;7.03;;;5.10;;
30934;SDS011;51033;42.648;23.292;2022-12-18T03:55:30;5.93;;;4.60;;
30934;SDS011;51033;42.648;23.292;2022-12-18T03:57:59;6.60;;;4.70;;
30934;SDS011;51033;42.648;23.292;2022-12-18T04:00:27;8.65;;;6.13;;
30934;SDS011;51033;42.648;23.292;2022-12-18T04:02:54;6.55;;;5.20;;
30934;SDS011;51033;42.648;23.292;2022-12-18T04:05:22;5.25;;;4.50;;
30934;SDS011;51033;42.648;23.292;2022-12-18T04:07:50;6.45;;;4.97;;
30934;SDS011;51033;42.648;23.292;2022-12-18T04:10:17;7.80;;;5.85;;
30934;SDS011;51033;42.648;23.292;2022-12-18T04:12:43;6.45;;;4.70;;
30934;SDS011;51033;42.648;23.292;2022-12-18T04:15:09;7.43;;;5.68;;
30934;SDS011;51033;42.648;23.292;2022-12-18T04:17:36;7.90;;;5.45;;
30934;SDS011;51033;42.648;23.292;2022-12-18T04:20:02;6.20;;;4.60;;
30934;SDS011;51033;42.648;23.292;2022-12-18T04:22:27;6.47;;;5.30;;
30934;SDS011;51033;42.648;23.292;2022-12-18T04:24:53;7.88;;;5.72;;
30934;SDS011;51033;42.648;23.292;2022-12-18T04:27:18;7.20;;;5.55;;
30934;SDS011;51033;42.648;23.292;2022-12-18T04:29:43;8.98;;;5.28;;
30934;SDS011;51033;42.648;23.292;2022-12-18T04:32:09;6.55;;;4.78;;
30934;SDS011;51033;42.648;23.292;2022-12-18T04:34:34;8.18;;;5.75;;
30934;SDS011;51033;42.648;23.292;2022-12-18T04:36:59;6.72;;;5.55;;
30934;SDS011;51033;42.648;23.292;2022-12-18T04:39:25;9.23;;;6.35;;
30934;SDS011;51033;42.648;23.292;2022-12-18T04:41:50;8.70;;;6.15;;
30934;SDS011;51033;42.648;23.292;2022-12-18T04:44:16;9.63;;;6.25;;
30934;SDS011;51033;42.648;23.292;2022-12-18T04:46:41;10.32;;;7.30;;
30934;SDS011;51033;42.648;23.292;2022-12-18T04:49:06;9.40;;;5.72;;
30934;SDS011;51033;42.648;23.292;2022-12-18T04:51:32;9.27;;;6.85;;
30934;SDS011;51033;42.648;23.292;2022-12-18T04:53:57;8.30;;;6.32;;
30934;SDS011;51033;42.648;23.292;2022-12-18T04:56:23;9.15;;;6.70;;
30934;SDS011;51033;42.648;23.292;2022-12-18T04:58:48;8.48;;;6.00;;
30934;SDS011;51033;42.648;23.292;2022-12-18T05:01:15;8.65;;;6.13;;
30934;SDS011;51033;42.648;23.292;2022-12-18T05:03:41;9.02;;;5.72;;
30934;SDS011;51033;42.648;23.292;2022-12-18T05:06:07;9.40;;;7.05;;
30934;SDS011;51033;42.648;23.292;2022-12-18T05:08:33;7.78;;;6.53;;
30934;SDS011;51033;42.648;23.292;2022-12-18T05:11:03;9.15;;;5.97;;
30934;SDS011;51033;42.648;23.292;2022-12-18T05:13:29;9.60;;;6.90;;
30934;SDS011;51033;42.648;23.292;2022-12-18T05:15:54;9.25;;;6.95;;
30934;SDS011;51033;42.648;23.292;2022-12-18T05:18:20;8.32;;;6.22;;
30934;SDS011;51033;42.648;23.292;2022-12-18T05:20:46;10.30;;;7.35;;
30934;SDS011;51033;42.648;23.292;2022-12-18T05:23:11;10.50;;;7.18;;
30934;SDS011;51033;42.648;23.292;2022-12-18T05:25:37;7.97;;;5.65;;
30934;SDS011;51033;42.648;23.292;2022-12-18T05:28:05;8.80;;;6.10;;
30934;SDS011;51033;42.648;23.292;2022-12-18T05:30:30;10.88;;;6.38;;
30934;SDS011;51033;42.648;23.292;2022-12-18T05:32:56;8.02;;;6.40;;
30934;SDS011;51033;42.648;23.292;2022-12-18T05:35:21;8.05;;;5.93;;
30934;SDS011;51033;42.648;23.292;2022-12-18T05:37:46;9.15;;;6.72;;
30934;SDS011;51033;42.648;23.292;2022-12-18T05:40:12;10.45;;;6.88;;
30934;SDS011;51033;42.648;23.292;2022-12-18T05:42:38;11.05;;;6.75;;
30934;SDS011;51033;42.648;23.292;2022-12-18T05:45:03;9.70;;;6.05;;
30934;SDS011;51033;42.648;23.292;2022-12-18T05:47:30;11.60;;;8.27;;
30934;SDS011;51033;42.648;23.292;2022-12-18T05:49:55;12.23;;;9.07;;
30934;SDS011;51033;42.648;23.292;2022-12-18T05:52:21;11.73;;;8.35;;
30934;SDS011;51033;42.648;23.292;2022-12-18T05:54:46;17.02;;;9.50;;
30934;SDS011;51033;42.648;23.292;2022-12-18T05:57:12;16.98;;;11.25;;
30934;SDS011;51033;42.648;23.292;2022-12-18T05:59:37;16.75;;;11.88;;
30934;SDS011;51033;42.648;23.292;2022-12-18T06:02:02;17.13;;;11.30;;
30934;SDS011;51033;42.648;23.292;2022-12-18T06:04:31;17.95;;;12.05;;
30934;SDS011;51033;42.648;23.292;2022-12-18T06:06:56;15.70;;;10.55;;
30934;SDS011;51033;42.648;23.292;2022-12-18T06:09:22;16.23;;;10.13;;
30934;SDS011;51033;42.648;23.292;2022-12-18T06:11:48;17.77;;;11.77;;
30934;SDS011;51033;42.648;23.292;2022-12-18T06:14:13;13.60;;;10.20;;
30934;SDS011;51033;42.648;23.292;2022-12-18T06:16:38;12.18;;;9.48;;
30934;SDS011;51033;42.648;23.292;2022-12-18T06:19:04;15.38;;;9.00;;
30934;SDS011;51033;42.648;23.292;2022-12-18T06:21:30;12.02;;;8.75;;
30934;SDS011;51033;42.648;23.292;2022-12-18T06:23:56;10.60;;;7.65;;
30934;SDS011;51033;42.648;23.292;2022-12-18T06:26:22;12.60;;;8.40;;
30934;SDS011;51033;42.648;23.292;2022-12-18T06:28:47;13.05;;;8.20;;
30934;SDS011;51033;42.648;23.292;2022-12-18T06:31:12;11.38;;;7.88;;
30934;SDS011;51033;42.648;23.292;2022-12-18T06:33:38;16.52;;;8.93;;
30934;SDS011;51033;42.648;23.292;2022-12-18T06:38:31;13.60;;;8.15;;
30934;SDS011;51033;42.648;23.292;2022-12-18T06:40:58;13.50;;;8.77;;
30934;SDS011;51033;42.648;23.292;2022-12-18T06:43:23;11.98;;;8.25;;
30934;SDS011;51033;42.648;23.292;2022-12-18T06:45:49;14.35;;;8.93;;
30934;SDS011;51033;42.648;23.292;2022-12-18T06:48:18;25.00;;;13.73;;
30934;SDS011;51033;42.648;23.292;2022-12-18T06:50:44;34.88;;;23.58;;
30934;SDS011;51033;42.648;23.292;2022-12-18T06:53:10;21.58;;;12.70;;
30934;SDS011;51033;42.648;23.292;2022-12-18T06:55:36;19.83;;;13.45;;
30934;SDS011;51033;42.648;23.292;2022-12-18T06:58:01;15.98;;;10.60;;
30934;SDS011;51033;42.648;23.292;2022-12-18T07:00:26;21.27;;;13.50;;
30934;SDS011;51033;42.648;23.292;2022-12-18T07:02:52;17.90;;;12.73;;
30934;SDS011;51033;42.648;23.292;2022-12-18T07:05:17;15.00;;;10.80;;
30934;SDS011;51033;42.648;23.292;2022-12-18T07:07:42;20.02;;;11.95;;
30934;SDS011;51033;42.648;23.292;2022-12-18T07:10:08;39.03;;;22.90;;
30934;SDS011;51033;42.648;23.292;2022-12-18T07:12:34;31.83;;;20.00;;
30934;SDS011;51033;42.648;23.292;2022-12-18T07:15:00;26.83;;;16.30;;
30934;SDS011;51033;42.648;23.292;2022-12-18T07:17:25;16.40;;;11.48;;
30934;SDS011;51033;42.648;23.292;2022-12-18T07:19:51;19.35;;;12.63;;
30934;SDS011;51033;42.648;23.292;2022-12-18T07:22:16;14.70;;;10.70;;
30934;SDS011;51033;42.648;23.292;2022-12-18T07:24:42;17.52;;;11.48;;
30934;SDS011;51033;42.648;23.292;2022-12-18T07:27:07;16.42;;;11.10;;
30934;SDS011;51033;42.648;23.292;2022-12-18T07:29:32;12.45;;;9.27;;
30934;SDS011;51033;42.648;23.292;2022-12-18T07:31:58;13.82;;;9.13;;
30934;SDS011;51033;42.648;23.292;2022-12-18T07:34:23;13.40;;;8.38;;
30934;SDS011;51033;42.648;23.292;2022-12-18T07:36:49;16.48;;;10.68;;
30934;SDS011;51033;42.648;23.292;2022-12-18T07:39:14;15.00;;;11.13;;
30934;SDS011;51033;42.648;23.292;2022-12-18T07:41:40;15.25;;;9.18;;
30934;SDS011;51033;42.648;23.292;2022-12-18T07:44:11;15.52;;;10.10;;
30934;SDS011;51033;42.648;23.292;2022-12-18T07:46:37;13.10;;;9.25;;
30934;SDS011;51033;42.648;23.292;2022-12-18T07:49:03;12.20;;;8.90;;
30934;SDS011;51033;42.648;23.292;2022-12-18T07:51:28;14.60;;;9.25;;
30934;SDS011;51033;42.648;23.292;2022-12-18T07:53:54;16.58;;;10.73;;
30934;SDS011;51033;42.648;23.292;2022-12-18T07:56:19;19.75;;;15.85;;
30934;SDS011;51033;42.648;23.292;2022-12-18T07:58:48;16.00;;;10.15;;
30934;SDS011;51033;42.648;23.292;2022-12-18T08:01:14;17.63;;;11.43;;
30934;SDS011;51033;42.648;23.292;2022-12-18T08:03:40;17.08;;;12.02;;
30934;SDS011;51033;42.648;23.292;2022-12-18T08:06:06;23.42;;;12.70;;
30934;SDS011;51033;42.648;23.292;2022-12-18T08:08:34;23.25;;;14.15;;
30934;SDS011;51033;42.648;23.292;2022-12-18T08:11:00;26.20;;;16.55;;
30934;SDS011;51033;42.648;23.292;2022-12-18T08:13:25;25.30;;;17.33;;
30934;SDS011;51033;42.648;23.292;2022-12-18T08:15:55;26.85;;;17.00;;
30934;SDS011;51033;42.648;23.292;2022-12-18T08:18:23;25.90;;;16.88;;
30934;SDS011;51033;42.648;23.292;2022-12-18T08:20:49;26.27;;;17.80;;
30934;SDS011;51033;42.648;23.292;2022-12-18T08:23:14;27.25;;;17.42;;
30934;SDS011;51033;42.648;23.292;2022-12-18T08:25:40;25.05;;;15.75;;
30934;SDS011;51033;42.648;23.292;2022-12-18T08:28:05;37.55;;;19.40;;
30934;SDS011;51033;42.648;23.292;2022-12-18T08:30:31;39.25;;;22.95;;
30934;SDS011;51033;42.648;23.292;2022-12-18T08:32:56;30.45;;;19.35;;
30934;SDS011;51033;42.648;23.292;2022-12-18T08:35:21;29.27;;;17.55;;
30934;SDS011;51033;42.648;23.292;2022-12-18T08:37:47;31.50;;;18.42;;
30934;SDS011;51033;42.648;23.292;2022-12-18T08:40:12;28.35;;;18.63;;
30934;SDS011;51033;42.648;23.292;2022-12-18T08:42:38;35.15;;;18.98;;
30934;SDS011;51033;42.648;23.292;2022-12-18T08:45:21;24.23;;;16.23;;
30934;SDS011;51033;42.648;23.292;2022-12-18T08:47:47;29.95;;;19.38;;
30934;SDS011;51033;42.648;23.292;2022-12-18T08:50:12;33.72;;;19.70;;
30934;SDS011;51033;42.648;23.292;2022-12-18T08:52:37;37.25;;;20.55;;
30934;SDS011;51033;42.648;23.292;2022-12-18T08:55:03;35.65;;;21.15;;
30934;SDS011;51033;42.648;23.292;2022-12-18T08:57:29;43.97;;;23.63;;
30934;SDS011;51033;42.648;23.292;2022-12-18T08:59:54;39.10;;;23.52;;
30934;SDS011;51033;42.648;23.292;2022-12-18T09:02:20;35.25;;;20.65;;
30934;SDS011;51033;42.648;23.292;2022-12-18T09:04:46;37.10;;;21.63;;
30934;SDS011;51033;42.648;23.292;2022-12-18T09:07:12;38.50;;;21.98;;
30934;SDS011;51033;42.648;23.292;2022-12-18T09:09:38;36.83;;;22.30;;
30934;SDS011;51033;42.648;23.292;2022-12-18T09:12:03;31.25;;;20.58;;
30934;SDS011;51033;42.648;23.292;2022-12-18T09:14:28;43.30;;;22.38;;
30934;SDS011;51033;42.648;23.292;2022-12-18T09:16:54;35.00;;;20.92;;
30934;SDS011;51033;42.648;23.292;2022-12-18T09:19:19;34.45;;;20.98;;
30934;SDS011;51033;42.648;23.292;2022-12-18T09:21:45;35.05;;;21.45;;
30934;SDS011;51033;42.648;23.292;2022-12-18T09:24:13;37.88;;;22.30;;
30934;SDS011;51033;42.648;23.292;2022-12-18T09:26:40;35.00;;;23.13;;
30934;SDS011;51033;42.648;23.292;2022-12-18T09:29:05;36.72;;;24.05;;
30934;SDS011;51033;42.648;23.292;2022-12-18T09:31:32;39.05;;;22.88;;
30934;SDS011;51033;42.648;23.292;2022-12-18T09:33:58;38.05;;;23.00;;
30934;SDS011;51033;42.648;23.292;2022-12-18T09:36:23;36.33;;;21.50;;
30934;SDS011;51033;42.648;23.292;2022-12-18T09:38:48;34.45;;;20.95;;
30934;SDS011;51033;42.648;23.292;2022-12-18T09:44:32;41.97;;;25.23;;
30934;SDS011;51033;42.648;23.292;2022-12-18T09:47:30;36.78;;;22.20;;
30934;SDS011;51033;42.648;23.292;2022-12-18T09:49:58;38.72;;;20.85;;
30934;SDS011;51033;42.648;23.292;2022-12-18T09:52:45;34.92;;;22.27;;
30934;SDS011;51033;42.648;23.292;2022-12-18T09:58:45;47.92;;;30.25;;
30934;SDS011;51033;42.648;23.292;2022-12-18T10:00:55;38.25;;;23.50;;
30934;SDS011;51033;42.648;23.292;2022-12-18T10:03:21;27.13;;;16.15;;
30934;SDS011;51033;42.648;23.292;2022-12-18T10:06:07;25.65;;;15.65;;
30934;SDS011;51033;42.648;23.292;2022-12-18T10:14:19;30.65;;;18.88;;
30934;SDS011;51033;42.648;23.292;2022-12-18T10:17:00;32.10;;;19.05;;
30934;SDS011;51033;42.648;23.292;2022-12-18T10:25:09;30.92;;;20.73;;
30934;SDS011;51033;42.648;23.292;2022-12-18T10:29:55;29.80;;;17.17;;
30934;SDS011;51033;42.648;23.292;2022-12-18T10:32:23;28.90;;;17.63;;
30934;SDS011;51033;42.648;23.292;2022-12-18T10:34:51;26.30;;;18.05;;
30934;SDS011;51033;42.648;23.292;2022-12-18T10:37:20;33.05;;;18.40;;
30934;SDS011;51033;42.648;23.292;2022-12-18T10:40:09;27.17;;;16.70;;
30934;SDS011;51033;42.648;23.292;2022-12-18T10:42:33;30.67;;;20.55;;
30934;SDS011;51033;42.648;23.292;2022-12-18T10:45:03;63.38;;;47.53;;
30934;SDS011;51033;42.648;23.292;2022-12-18T10:47:36;33.03;;;21.08;;
30934;SDS011;51033;42.648;23.292;2022-12-18T10:50:11;27.10;;;16.35;;
30934;SDS011;51033;42.648;23.292;2022-12-18T10:52:55;35.47;;;22.95;;
30934;SDS011;51033;42.648;23.292;2022-12-18T10:55:22;131.45;;;101.72;;
30934;SDS011;51033;42.648;23.292;2022-12-18T10:57:49;31.23;;;20.13;;
30934;SDS011;51033;42.648;23.292;2022-12-18T11:00:33;47.42;;;29.95;;
30934;SDS011;51033;42.648;23.292;2022-12-18T11:02:58;69.50;;;47.55;;
30934;SDS011;51033;42.648;23.292;2022-12-18T11:05:25;36.65;;;22.60;;
30934;SDS011;51033;42.648;23.292;2022-12-18T11:08:02;27.48;;;16.38;;
30934;SDS011;51033;42.648;23.292;2022-12-18T11:10:28;138.18;;;97.25;;
30934;SDS011;51033;42.648;23.292;2022-12-18T11:13:08;29.33;;;20.10;;
30934;SDS011;51033;42.648;23.292;2022-12-18T11:15:40;35.75;;;25.70;;
30934;SDS011;51033;42.648;23.292;2022-12-18T11:18:14;29.33;;;20.80;;
30934;SDS011;51033;42.648;23.292;2022-12-18T11:20:43;31.40;;;20.60;;
30934;SDS011;51033;42.648;23.292;2022-12-18T11:23:16;24.40;;;16.88;;
30934;SDS011;51033;42.648;23.292;2022-12-18T11:25:50;25.73;;;18.45;;
30934;SDS011;51033;42.648;23.292;2022-12-18T11:31:29;40.72;;;27.55;;
30934;SDS011;51033;42.648;23.292;2022-12-18T11:33:57;27.20;;;18.92;;
30934;SDS011;51033;42.648;23.292;2022-12-18T11:36:24;24.70;;;16.63;;
30934;SDS011;51033;42.648;23.292;2022-12-18T11:38:53;24.88;;;17.33;;
30934;SDS011;51033;42.648;23.292;2022-12-18T11:41:25;25.35;;;17.35;;
30934;SDS011;51033;42.648;23.292;2022-12-18T11:44:13;32.15;;;21.90;;
30934;SDS011;51033;42.648;23.292;2022-12-18T11:46:49;20.67;;;14.25;;
30934;SDS011;51033;42.648;23.292;2022-12-18T11:49:20;28.33;;;20.67;;
30934;SDS011;51033;42.648;23.292;2022-12-18T11:51:52;23.02;;;16.67;;
30934;SDS011;51033;42.648;23.292;2022-12-18T11:54:23;20.92;;;12.68;;
30934;SDS011;51033;42.648;23.292;2022-12-18T11:56:51;27.27;;;17.75;;
30934;SDS011;51033;42.648;23.292;2022-12-18T12:05:20;26.15;;;14.98;;
30934;SDS011;51033;42.648;23.292;2022-12-18T12:08:01;31.02;;;18.08;;
30934;SDS011;51033;42.648;23.292;2022-12-18T12:10:46;30.40;;;18.05;;
30934;SDS011;51033;42.648;23.292;2022-12-18T12:40:23;21.92;;;14.00;;
30934;SDS011;51033;42.648;23.292;2022-12-18T12:42:55;20.75;;;13.73;;
30934;SDS011;51033;42.648;23.292;2022-12-18T12:45:44;23.45;;;14.57;;
30934;SDS011;51033;42.648;23.292;2022-12-18T12:51:06;38.33;;;25.38;;
30934;SDS011;51033;42.648;23.292;2022-12-18T12:53:37;29.23;;;18.30;;
30934;SDS011;51033;42.648;23.292;2022-12-18T12:56:04;27.90;;;19.70;;
30934;SDS011;51033;42.648;23.292;2022-12-18T12:58:37;23.50;;;14.75;;
30934;SDS011;51033;42.648;23.292;2022-12-18T13:04:08;34.38;;;21.08;;
30934;SDS011;51033;42.648;23.292;2022-12-18T13:09:00;31.45;;;18.75;;
30934;SDS011;51033;42.648;23.292;2022-12-18T13:11:30;26.63;;;18.80;;
30934;SDS011;51033;42.648;23.292;2022-12-18T13:14:26;33.55;;;21.65;;
30934;SDS011;51033;42.648;23.292;2022-12-18T13:19:44;26.05;;;17.30;;
30934;SDS011;51033;42.648;23.292;2022-12-18T13:22:43;31.98;;;19.00;;
30934;SDS011;51033;42.648;23.292;2022-12-18T13:25:26;25.75;;;17.30;;
30934;SDS011;51033;42.648;23.292;2022-12-18T13:43:21;33.53;;;24.05;;
30934;SDS011;51033;42.648;23.292;2022-12-18T13:46:04;25.90;;;17.25;;
30934;SDS011;51033;42.648;23.292;2022-12-18T13:48:34;24.65;;;15.63;;
30934;SDS011;51033;42.648;23.292;2022-12-18T13:51:04;28.70;;;18.38;;
30934;SDS011;51033;42.648;23.292;2022-12-18T13:53:34;26.13;;;15.32;;
30934;SDS011;51033;42.648;23.292;2022-12-18T13:55:59;25.55;;;17.25;;
30934;SDS011;51033;42.648;23.292;2022-12-18T13:58:25;27.00;;;16.25;;
30934;SDS011;51033;42.648;23.292;2022-12-18T14:00:50;28.63;;;17.63;;
30934;SDS011;51033;42.648;23.292;2022-12-18T14:03:23;27.20;;;17.75;;
30934;SDS011;51033;42.648;23.292;2022-12-18T14:06:00;26.27;;;17.88;;
30934;SDS011;51033;42.648;23.292;2022-12-18T14:08:40;33.67;;;20.75;;
30934;SDS011;51033;42.648;23.292;2022-12-18T14:11:07;37.05;;;22.05;;
30934;SDS011;51033;42.648;23.292;2022-12-18T14:13:44;27.65;;;17.27;;
30934;SDS011;51033;42.648;23.292;2022-12-18T14:16:12;25.30;;;16.70;;
30934;SDS011;51033;42.648;23.292;2022-12-18T14:21:24;33.70;;;20.42;;
30934;SDS011;51033;42.648;23.292;2022-12-18T14:24:34;28.50;;;18.27;;
30934;SDS011;51033;42.648;23.292;2022-12-18T14:26:42;31.65;;;18.80;;
30934;SDS011;51033;42.648;23.292;2022-12-18T14:29:19;28.98;;;17.17;;
30934;SDS011;51033;42.648;23.292;2022-12-18T14:32:12;41.55;;;29.70;;
30934;SDS011;51033;42.648;23.292;2022-12-18T14:34:41;27.35;;;16.52;;
30934;SDS011;51033;42.648;23.292;2022-12-18T14:37:09;23.50;;;14.68;;
30934;SDS011;51033;42.648;23.292;2022-12-18T14:39:36;24.75;;;14.70;;
30934;SDS011;51033;42.648;23.292;2022-12-18T14:42:01;24.35;;;14.18;;
30934;SDS011;51033;42.648;23.292;2022-12-18T14:44:26;23.55;;;14.68;;
30934;SDS011;51033;42.648;23.292;2022-12-18T14:46:52;24.35;;;14.13;;
30934;SDS011;51033;42.648;23.292;2022-12-18T14:49:23;23.90;;;14.95;;
30934;SDS011;51033;42.648;23.292;2022-12-18T14:52:03;28.73;;;15.90;;
30934;SDS011;51033;42.648;23.292;2022-12-18T14:54:30;22.52;;;15.27;;
30934;SDS011;51033;42.648;23.292;2022-12-18T14:57:16;29.50;;;15.98;;
30934;SDS011;51033;42.648;23.292;2022-12-18T14:59:44;25.65;;;16.40;;
30934;SDS011;51033;42.648;23.292;2022-12-18T15:04:36;27.95;;;17.65;;
30934;SDS011;51033;42.648;23.292;2022-12-18T15:09:29;28.10;;;17.52;;
30934;SDS011;51033;42.648;23.292;2022-12-18T15:11:58;28.35;;;18.63;;
30934;SDS011;51033;42.648;23.292;2022-12-18T15:16:57;26.77;;;16.92;;
30934;SDS011;51033;42.648;23.292;2022-12-18T15:19:32;34.03;;;19.70;;
30934;SDS011;51033;42.648;23.292;2022-12-18T15:21:59;28.33;;;16.85;;
30934;SDS011;51033;42.648;23.292;2022-12-18T15:24:26;27.92;;;18.73;;
30934;SDS011;51033;42.648;23.292;2022-12-18T15:26:55;26.98;;;16.95;;
30934;SDS011;51033;42.648;23.292;2022-12-18T15:29:21;24.13;;;14.93;;
30934;SDS011;51033;42.648;23.292;2022-12-18T15:32:01;24.65;;;15.73;;
30934;SDS011;51033;42.648;23.292;2022-12-18T15:34:28;25.38;;;16.27;;
30934;SDS011;51033;42.648;23.292;2022-12-18T15:36:54;26.27;;;15.38;;
30934;SDS011;51033;42.648;23.292;2022-12-18T15:39:20;27.92;;;16.58;;
30934;SDS011;51033;42.648;23.292;2022-12-18T15:41:46;24.73;;;15.80;;
30934;SDS011;51033;42.648;23.292;2022-12-18T15:44:30;25.83;;;15.55;;
30934;SDS011;51033;42.648;23.292;2022-12-18T15:46:55;27.58;;;17.38;;
30934;SDS011;51033;42.648;23.292;2022-12-18T15:49:21;24.88;;;15.98;;
30934;SDS011;51033;42.648;23.292;2022-12-18T15:51:51;26.42;;;16.65;;
30934;SDS011;51033;42.648;23.292;2022-12-18T15:54:18;26.40;;;16.02;;
30934;SDS011;51033;42.648;23.292;2022-12-18T15:57:04;27.02;;;16.55;;
30934;SDS011;51033;42.648;23.292;2022-12-18T15:59:49;27.75;;;17.33;;
30934;SDS011;51033;42.648;23.292;2022-12-18T16:02:18;26.88;;;15.98;;
30934;SDS011;51033;42.648;23.292;2022-12-18T16:04:44;29.67;;;20.60;;
30934;SDS011;51033;42.648;23.292;2022-12-18T16:07:10;35.13;;;24.17;;
30934;SDS011;51033;42.648;23.292;2022-12-18T16:09:36;24.65;;;14.18;;
30934;SDS011;51033;42.648;23.292;2022-12-18T16:12:03;21.50;;;13.93;;
30934;SDS011;51033;42.648;23.292;2022-12-18T16:14:31;21.48;;;14.13;;
30934;SDS011;51033;42.648;23.292;2022-12-18T16:16:58;17.75;;;13.45;;
30934;SDS011;51033;42.648;23.292;2022-12-18T16:19:26;21.70;;;14.57;;
30934;SDS011;51033;42.648;23.292;2022-12-18T16:21:52;27.05;;;17.10;;
30934;SDS011;51033;42.648;23.292;2022-12-18T16:24:21;23.73;;;14.75;;
30934;SDS011;51033;42.648;23.292;2022-12-18T16:26:51;20.27;;;14.57;;
30934;SDS011;51033;42.648;23.292;2022-12-18T16:29:17;24.88;;;15.98;;
30934;SDS011;51033;42.648;23.292;2022-12-18T16:31:43;25.02;;;13.25;;
30934;SDS011;51033;42.648;23.292;2022-12-18T16:34:10;19.50;;;12.02;;
30934;SDS011;51033;42.648;23.292;2022-12-18T16:36:37;21.30;;;13.60;;
30934;SDS011;51033;42.648;23.292;2022-12-18T16:39:02;22.88;;;12.80;;
30934;SDS011;51033;42.648;23.292;2022-12-18T16:41:27;23.13;;;13.40;;